createdAt,value
2022-12-03T00:00:35.721Z,20.01
2022-12-03T00:03:02.403Z,20.06
2022-12-03T00:05:29.112Z,20.05
2022-12-03T00:07:55.736Z,20.04
2022-12-03T00:10:22.353Z,19.97
2022-12-03T00:12:48.903Z,20.07
2022-12-03T00:15:16.471Z,20.11
2022-12-03T00:17:43.041Z,20.09
2022-12-03T00:20:11.051Z,20.09
2022-12-03T00:22:37.644Z,20.08
2022-12-03T00:25:04.454Z,20.09
2022-12-03T00:27:31.099Z,20.08
2022-12-03T00:29:57.701Z,20.16
2022-12-03T00:32:24.276Z,20.16
2022-12-03T00:34:50.965Z,20.13
2022-12-03T00:37:17.711Z,20.15
2022-12-03T00:39:44.245Z,20.13
2022-12-03T00:42:10.851Z,20.13
2022-12-03T00:44:37.405Z,20.18
2022-12-03T00:47:04.268Z,20.16
2022-12-03T00:49:31.034Z,20.24
2022-12-03T00:51:57.576Z,20.28
2022-12-03T00:54:29.974Z,20.24
2022-12-03T00:56:58.388Z,20.24
2022-12-03T00:59:25.237Z,20.15
2022-12-03T01:01:51.932Z,20.32
2022-12-03T01:04:18.686Z,20.29
2022-12-03T01:06:45.367Z,20.22
2022-12-03T01:09:11.955Z,20.22
2022-12-03T01:11:38.767Z,20.24
2022-12-03T01:14:06.485Z,20.21
2022-12-03T01:16:33.291Z,20.27
2022-12-03T01:18:59.992Z,20.27
2022-12-03T01:21:26.577Z,20.31
2022-12-03T01:23:53.182Z,20.32
2022-12-03T01:26:19.806Z,20.28
2022-12-03T01:28:46.492Z,20.24
2022-12-03T01:31:31.392Z,20.31
2022-12-03T01:33:58.091Z,20.38
2022-12-03T01:36:24.666Z,20.25
2022-12-03T01:38:51.220Z,20.30
2022-12-03T01:41:17.872Z,20.35
2022-12-03T01:43:44.522Z,20.28
2022-12-03T01:46:13.786Z,20.31
2022-12-03T01:48:40.477Z,20.34
2022-12-03T01:51:07.320Z,20.37
2022-12-03T01:53:35.955Z,20.39
2022-12-03T01:56:02.554Z,20.35
2022-12-03T01:58:29.183Z,20.49
2022-12-03T02:01:01.109Z,20.52
2022-12-03T02:03:27.739Z,20.42
2022-12-03T02:05:54.314Z,20.38
2022-12-03T02:08:30.930Z,20.39
2022-12-03T02:11:03.118Z,20.33
2022-12-03T02:13:29.712Z,20.34
2022-12-03T02:15:56.286Z,20.43
2022-12-03T02:18:22.904Z,20.36
2022-12-03T02:21:15.927Z,20.32
2022-12-03T02:23:57.815Z,20.29
2022-12-03T02:26:24.389Z,20.28
2022-12-03T02:28:51.008Z,20.30
2022-12-03T02:31:17.730Z,20.38
2022-12-03T02:33:44.354Z,20.32
2022-12-03T02:36:11.067Z,20.27
2022-12-03T02:38:37.638Z,20.35
2022-12-03T02:41:06.715Z,20.43
2022-12-03T02:43:33.282Z,20.27
2022-12-03T02:46:00.252Z,20.27
2022-12-03T02:48:30.238Z,20.30
2022-12-03T02:51:04.406Z,20.39
2022-12-03T02:53:44.449Z,20.37
2022-12-03T02:56:12.280Z,20.40
2022-12-03T02:58:38.862Z,20.32
2022-12-03T03:01:05.567Z,20.39
2022-12-03T03:03:32.406Z,20.36
2022-12-03T03:05:59.539Z,20.49
2022-12-03T03:08:26.165Z,20.43
2022-12-03T03:10:52.722Z,20.68
2022-12-03T03:13:19.549Z,20.82
2022-12-03T03:15:46.224Z,20.93
2022-12-03T03:18:13.133Z,21.09
2022-12-03T03:20:39.773Z,21.25
2022-12-03T03:23:07.265Z,21.45
2022-12-03T03:25:33.813Z,21.64
2022-12-03T03:28:00.401Z,21.89
2022-12-03T03:30:26.977Z,22.11
2022-12-03T03:32:53.603Z,22.38
2022-12-03T03:35:20.208Z,22.57
2022-12-03T03:37:46.777Z,22.77
2022-12-03T03:40:13.849Z,22.94
2022-12-03T03:42:40.477Z,23.16
2022-12-03T03:45:08.035Z,23.38
2022-12-03T03:47:34.628Z,23.66
2022-12-03T03:50:01.221Z,23.77
2022-12-03T03:52:27.858Z,23.66
2022-12-03T03:54:54.620Z,23.42
2022-12-03T03:57:21.371Z,23.10
2022-12-03T03:59:47.965Z,22.66
2022-12-03T04:02:24.783Z,21.62
2022-12-03T04:04:51.813Z,19.86
2022-12-03T04:07:18.637Z,17.84
2022-12-03T04:09:45.252Z,16.27
2022-12-03T04:12:30.630Z,15.10
2022-12-03T04:14:57.744Z,14.31
2022-12-03T04:17:24.414Z,14.09
2022-12-03T04:19:50.969Z,14.13
2022-12-03T04:22:36.108Z,14.16
2022-12-03T04:25:21.509Z,14.18
2022-12-03T04:28:06.832Z,14.11
2022-12-03T04:30:33.412Z,13.88
2022-12-03T04:33:18.587Z,13.61
2022-12-03T04:35:45.234Z,13.42
2022-12-03T04:38:12.554Z,13.35
2022-12-03T04:40:58.545Z,13.33
2022-12-03T04:43:25.305Z,13.33
2022-12-03T04:45:51.970Z,13.34
2022-12-03T04:48:18.593Z,13.34
2022-12-03T04:50:45.249Z,13.34
2022-12-03T04:53:11.867Z,13.34
2022-12-03T04:55:38.488Z,13.34
2022-12-03T04:58:05.212Z,13.34
2022-12-03T05:00:31.903Z,13.33
2022-12-03T05:02:58.676Z,13.32
2022-12-03T05:05:25.338Z,13.28
2022-12-03T05:07:51.918Z,13.27
2022-12-03T05:10:18.531Z,13.21
2022-12-03T05:12:45.082Z,13.19
2022-12-03T05:15:11.628Z,13.15
2022-12-03T05:17:38.308Z,13.14
2022-12-03T05:20:23.953Z,13.13
2022-12-03T05:22:50.424Z,13.16
2022-12-03T05:25:17.091Z,13.14
2022-12-03T05:27:43.699Z,13.12
2022-12-03T05:30:10.585Z,13.14
2022-12-03T05:32:38.439Z,13.17
2022-12-03T05:35:05.334Z,13.18
2022-12-03T05:37:31.903Z,13.18
2022-12-03T05:39:58.500Z,13.18
2022-12-03T05:42:43.638Z,13.18
2022-12-03T05:45:10.674Z,13.18
2022-12-03T05:47:37.265Z,13.20
2022-12-03T05:50:04.078Z,13.19
2022-12-03T05:52:47.962Z,13.19
2022-12-03T05:55:14.825Z,13.17
2022-12-03T06:01:02.290Z,13.13
2022-12-03T06:03:29.010Z,13.14
2022-12-03T06:05:55.747Z,13.16
2022-12-03T06:08:22.406Z,13.14
2022-12-03T06:10:49.021Z,13.12
2022-12-03T06:13:15.686Z,13.13
2022-12-03T06:15:44.184Z,13.14
2022-12-03T06:18:11.098Z,13.13
2022-12-03T06:20:37.892Z,13.12
2022-12-03T06:23:04.566Z,13.12
2022-12-03T06:25:31.150Z,13.12
2022-12-03T06:27:57.720Z,13.11
2022-12-03T06:30:24.321Z,13.09
2022-12-03T06:32:50.953Z,13.08
2022-12-03T06:35:17.495Z,13.09
2022-12-03T06:37:44.037Z,13.09
2022-12-03T06:40:11.103Z,13.05
2022-12-03T06:42:37.699Z,13.05
2022-12-03T06:45:04.723Z,13.04
2022-12-03T06:47:31.293Z,13.04
2022-12-03T06:49:57.880Z,13.04
2022-12-03T06:52:24.512Z,13.04
2022-12-03T06:54:51.236Z,13.05
2022-12-03T06:57:17.905Z,13.03
2022-12-03T06:59:44.449Z,13.04
2022-12-03T07:02:12.577Z,13.05
2022-12-03T07:04:52.770Z,13.05
2022-12-03T07:07:19.444Z,13.07
2022-12-03T07:09:45.985Z,13.02
2022-12-03T07:12:12.664Z,13.03
2022-12-03T07:14:39.250Z,13.03
2022-12-03T07:17:05.845Z,13.02
2022-12-03T07:19:33.166Z,13.02
2022-12-03T07:22:00.206Z,13.02
2022-12-03T07:24:26.782Z,13.03
2022-12-03T07:26:53.359Z,13.02
2022-12-03T07:29:19.941Z,13.01
2022-12-03T07:31:46.589Z,13.00
2022-12-03T07:34:13.226Z,13.00
2022-12-03T07:36:39.771Z,13.02
2022-12-03T07:39:06.349Z,13.01
2022-12-03T07:41:32.925Z,13.00
2022-12-03T07:43:59.521Z,13.00
2022-12-03T07:46:26.180Z,12.99
2022-12-03T07:48:52.793Z,12.97
2022-12-03T07:51:19.386Z,12.96
2022-12-03T07:53:45.934Z,12.96
2022-12-03T07:56:12.552Z,12.95
2022-12-03T07:58:39.179Z,12.97
2022-12-03T08:01:05.974Z,12.97
2022-12-03T08:03:32.642Z,12.96
2022-12-03T08:05:59.204Z,12.93
2022-12-03T08:08:25.797Z,12.94
2022-12-03T08:10:52.415Z,12.94
2022-12-03T08:13:19.193Z,12.92
2022-12-03T08:15:45.830Z,12.91
2022-12-03T08:18:14.946Z,12.91
2022-12-03T08:20:41.861Z,12.89
2022-12-03T08:23:14.717Z,12.88
2022-12-03T08:25:41.664Z,12.85
2022-12-03T08:28:12.368Z,12.86
2022-12-03T08:30:39.286Z,12.87
2022-12-03T08:33:31.031Z,12.85
2022-12-03T08:35:57.632Z,12.84
2022-12-03T08:38:25.249Z,12.81
2022-12-03T08:40:52.389Z,12.80
2022-12-03T08:43:26.149Z,12.78
2022-12-03T08:45:56.289Z,12.76
2022-12-03T08:48:37.098Z,12.76
2022-12-03T08:51:15.484Z,12.73
2022-12-03T08:53:54.286Z,12.76
2022-12-03T08:56:28.925Z,12.76
2022-12-03T08:58:57.781Z,12.74
2022-12-03T09:01:39.094Z,12.85
2022-12-03T09:04:16.582Z,13.24
2022-12-03T09:06:43.283Z,13.81
2022-12-03T09:09:09.860Z,14.32
2022-12-03T09:11:36.628Z,14.82
2022-12-03T09:14:03.454Z,15.33
2022-12-03T09:16:30.165Z,15.83
2022-12-03T09:18:56.821Z,16.30
2022-12-03T09:21:23.346Z,16.65
2022-12-03T09:23:49.904Z,16.89
2022-12-03T09:26:16.442Z,17.02
2022-12-03T09:28:43.078Z,17.15
2022-12-03T09:31:09.636Z,17.06
2022-12-03T09:33:36.186Z,16.81
2022-12-03T09:36:02.789Z,16.55
2022-12-03T09:38:29.401Z,16.35
2022-12-03T09:40:55.935Z,16.32
2022-12-03T09:43:24.433Z,16.36
2022-12-03T09:45:51.085Z,16.48
2022-12-03T09:48:18.558Z,16.57
2022-12-03T09:50:45.166Z,16.67
2022-12-03T09:53:17.751Z,16.73
2022-12-03T09:55:45.303Z,16.82
2022-12-03T09:58:12.916Z,16.84
2022-12-03T10:00:39.477Z,16.91
2022-12-03T10:03:06.389Z,16.92
2022-12-03T10:05:33.503Z,16.99
2022-12-03T10:08:10.409Z,16.97
2022-12-03T10:10:37.249Z,16.99
2022-12-03T10:13:04.038Z,16.96
2022-12-03T10:15:30.607Z,16.97
2022-12-03T10:17:58.316Z,16.90
2022-12-03T10:20:25.046Z,16.89
2022-12-03T10:22:51.798Z,16.82
2022-12-03T10:25:20.093Z,16.80
2022-12-03T10:28:02.830Z,16.81
2022-12-03T10:30:29.556Z,16.83
2022-12-03T10:32:57.601Z,16.83
2022-12-03T10:35:38.178Z,16.83
2022-12-03T10:38:19.414Z,16.86
2022-12-03T10:40:46.165Z,16.91
2022-12-03T10:43:18.803Z,16.90
2022-12-03T10:45:45.805Z,16.89
2022-12-03T10:48:13.589Z,16.83
2022-12-03T10:50:50.620Z,16.86
2022-12-03T10:53:17.744Z,16.89
2022-12-03T10:55:44.978Z,16.96
2022-12-03T10:58:24.361Z,17.00
2022-12-03T11:00:52.401Z,17.06
2022-12-03T11:03:21.381Z,17.09
2022-12-03T11:05:48.445Z,17.14
2022-12-03T11:08:19.913Z,17.16
2022-12-03T11:10:55.168Z,17.21
2022-12-03T11:13:29.189Z,17.25
2022-12-03T11:15:55.968Z,17.34
2022-12-03T11:18:37.998Z,17.36
2022-12-03T11:21:11.368Z,17.37
2022-12-03T11:23:46.942Z,17.34
2022-12-03T11:26:19.613Z,17.35
2022-12-03T11:28:46.469Z,17.35
2022-12-03T11:31:36.404Z,17.38
2022-12-03T11:34:14.909Z,17.35
2022-12-03T11:37:09.659Z,17.34
2022-12-03T11:39:48.192Z,17.34
2022-12-03T11:42:26.860Z,17.35
2022-12-03T11:45:05.451Z,17.39
2022-12-03T11:47:38.789Z,17.40
2022-12-03T11:50:18.142Z,17.43
2022-12-03T11:52:45.230Z,17.48
2022-12-03T11:55:30.369Z,17.55
2022-12-03T11:58:04.346Z,17.57
2022-12-03T12:00:30.925Z,17.62
2022-12-03T12:02:58.083Z,17.64
2022-12-03T12:05:27.632Z,17.69
2022-12-03T12:07:54.455Z,17.68
2022-12-03T12:10:46.776Z,17.72
2022-12-03T12:13:31.736Z,17.79
2022-12-03T12:15:59.214Z,17.91
2022-12-03T12:18:55.014Z,17.99
2022-12-03T12:22:17.329Z,18.08
2022-12-03T12:24:47.569Z,18.24
2022-12-03T12:27:23.805Z,18.33
2022-12-03T12:29:55.051Z,18.39
2022-12-03T12:32:47.793Z,18.45
2022-12-03T12:35:21.653Z,18.54
2022-12-03T12:37:58.124Z,18.59
2022-12-03T12:40:27.940Z,18.71
2022-12-03T12:42:57.550Z,18.75
2022-12-03T12:45:44.658Z,18.84
2022-12-03T12:48:19.988Z,18.88
2022-12-03T12:50:47.569Z,18.96
2022-12-03T12:53:27.179Z,18.98
2022-12-03T12:56:01.326Z,19.08
2022-12-03T12:58:31.965Z,19.16
2022-12-03T13:01:05.454Z,19.41
2022-12-03T13:03:37.104Z,19.61
2022-12-03T13:06:03.802Z,19.87
2022-12-03T13:08:45.784Z,20.04
2022-12-03T13:11:24.567Z,20.18
2022-12-03T13:13:51.229Z,20.33
2022-12-03T13:16:33.715Z,20.43
2022-12-03T13:19:00.571Z,20.50
2022-12-03T13:21:40.425Z,20.60
2022-12-03T13:24:32.304Z,20.66
2022-12-03T13:27:00.088Z,20.70
2022-12-03T13:29:27.192Z,20.76
2022-12-03T13:32:01.888Z,20.80
2022-12-03T13:34:33.483Z,20.85
2022-12-03T13:37:05.197Z,20.88
2022-12-03T13:39:35.849Z,20.86
2022-12-03T13:42:38.856Z,20.92
2022-12-03T13:45:17.639Z,20.97
2022-12-03T13:47:45.658Z,21.01
2022-12-03T13:50:23.356Z,21.05
2022-12-03T13:52:50.005Z,21.06
2022-12-03T13:55:25.652Z,21.13
2022-12-03T13:57:52.334Z,21.05
2022-12-03T14:00:19.168Z,21.12
2022-12-03T14:02:45.833Z,21.12
2022-12-03T14:05:12.509Z,21.16
2022-12-03T14:07:39.277Z,21.17
2022-12-03T14:10:07.343Z,21.19
2022-12-03T14:12:34.028Z,21.20
2022-12-03T14:15:01.713Z,21.22
2022-12-03T14:17:28.393Z,21.25
2022-12-03T14:19:55.067Z,21.29
2022-12-03T14:22:23.404Z,21.26
2022-12-03T14:24:50.354Z,21.30
2022-12-03T14:27:16.905Z,21.30
2022-12-03T14:29:43.450Z,21.30
2022-12-03T14:32:10.180Z,21.34
2022-12-03T14:34:36.796Z,21.33
2022-12-03T14:37:03.409Z,21.37
2022-12-03T14:39:30.007Z,21.40
2022-12-03T14:42:14.666Z,21.39
2022-12-03T14:44:42.724Z,21.43
2022-12-03T14:47:09.650Z,21.45
2022-12-03T14:49:36.367Z,21.46
2022-12-03T14:52:03.114Z,21.47
2022-12-03T14:54:30.085Z,21.46
2022-12-03T14:56:56.732Z,21.50
2022-12-03T14:59:27.649Z,21.51
2022-12-03T15:01:54.849Z,21.61
2022-12-03T15:04:21.596Z,21.61
2022-12-03T15:06:48.212Z,21.60
2022-12-03T15:09:14.803Z,21.60
2022-12-03T15:11:45.894Z,21.60
2022-12-03T15:14:13.018Z,21.60
2022-12-03T15:16:39.659Z,21.62
2022-12-03T15:19:06.283Z,21.62
2022-12-03T15:21:34.892Z,21.61
2022-12-03T15:24:02.184Z,21.66
2022-12-03T15:26:28.826Z,21.66
2022-12-03T15:28:55.386Z,21.67
2022-12-03T15:31:22.051Z,21.69
2022-12-03T15:33:48.841Z,21.68
2022-12-03T15:36:15.454Z,21.71
2022-12-03T15:38:42.043Z,21.76
2022-12-03T15:41:28.866Z,21.76
2022-12-03T15:43:59.918Z,21.77
2022-12-03T15:46:28.003Z,21.81
2022-12-03T15:48:55.221Z,21.83
2022-12-03T15:51:21.827Z,21.83
2022-12-03T15:53:48.432Z,21.81
2022-12-03T15:56:15.008Z,21.83
2022-12-03T15:58:41.638Z,21.85
2022-12-03T16:01:08.649Z,21.89
2022-12-03T16:03:35.524Z,21.88
2022-12-03T16:06:02.106Z,21.88
2022-12-03T16:08:28.690Z,21.89
2022-12-03T16:10:55.269Z,21.93
2022-12-03T16:13:21.831Z,21.93
2022-12-03T16:15:48.442Z,21.94
2022-12-03T16:18:15.062Z,21.92
2022-12-03T16:20:41.596Z,21.93
2022-12-03T16:23:08.277Z,21.92
2022-12-03T16:25:34.874Z,21.93
2022-12-03T16:28:01.433Z,21.88
2022-12-03T16:30:28.043Z,21.91
2022-12-03T16:32:54.641Z,21.89
2022-12-03T16:35:21.198Z,21.89
2022-12-03T16:37:47.753Z,21.90
2022-12-03T16:40:14.323Z,21.95
2022-12-03T16:42:40.985Z,21.94
2022-12-03T16:45:08.375Z,21.86
2022-12-03T16:47:35.259Z,21.88
2022-12-03T16:50:02.589Z,21.89
2022-12-03T16:52:29.174Z,21.86
2022-12-03T16:54:55.749Z,21.89
2022-12-03T16:57:22.302Z,21.88
2022-12-03T16:59:48.878Z,21.91
2022-12-03T17:02:15.591Z,21.87
2022-12-03T17:04:42.220Z,21.93
2022-12-03T17:07:08.769Z,21.91
2022-12-03T17:09:35.337Z,21.98
2022-12-03T17:12:01.932Z,21.90
2022-12-03T17:14:33.065Z,21.96
2022-12-03T17:17:00.122Z,21.94
2022-12-03T17:19:26.710Z,21.88
2022-12-03T17:21:54.332Z,21.90
2022-12-03T17:24:21.438Z,21.93
2022-12-03T17:26:48.102Z,21.93
2022-12-03T17:29:14.667Z,21.93
2022-12-03T17:31:42.630Z,21.91
2022-12-03T17:34:09.764Z,21.94
2022-12-03T17:36:36.339Z,21.97
2022-12-03T17:39:02.926Z,21.94
2022-12-03T17:41:29.614Z,21.95
2022-12-03T17:43:56.189Z,21.93
2022-12-03T17:46:22.841Z,21.95
2022-12-03T17:48:49.639Z,21.98
2022-12-03T17:51:16.259Z,21.97
2022-12-03T17:53:42.880Z,22.02
2022-12-03T17:56:09.652Z,21.98
2022-12-03T17:58:36.244Z,21.96
2022-12-03T18:01:03.444Z,22.11
2022-12-03T18:03:30.548Z,22.02
2022-12-03T18:05:57.227Z,22.04
2022-12-03T18:08:23.948Z,22.04
2022-12-03T18:10:50.631Z,22.01
2022-12-03T18:13:17.337Z,22.04
2022-12-03T18:15:43.986Z,22.04
2022-12-03T18:18:10.685Z,22.03
2022-12-03T18:20:37.438Z,22.13
2022-12-03T18:23:04.029Z,22.09
2022-12-03T18:25:30.585Z,22.13
2022-12-03T18:27:57.190Z,22.15
2022-12-03T18:30:23.781Z,22.08
2022-12-03T18:32:50.889Z,22.08
2022-12-03T18:35:18.048Z,22.17
2022-12-03T18:37:44.724Z,22.11
2022-12-03T18:40:22.680Z,22.14
2022-12-03T18:42:49.265Z,22.12
2022-12-03T18:45:16.336Z,22.10
2022-12-03T18:47:43.061Z,22.13
2022-12-03T18:50:10.011Z,22.13
2022-12-03T18:52:36.622Z,22.19
2022-12-03T18:55:03.928Z,22.14
2022-12-03T18:57:30.478Z,22.16
2022-12-03T18:59:57.298Z,22.22
2022-12-03T19:03:00.616Z,22.15
2022-12-03T19:05:10.870Z,22.16
2022-12-03T19:07:37.618Z,22.08
2022-12-03T19:10:04.664Z,22.14
2022-12-03T19:12:31.702Z,22.14
2022-12-03T19:14:58.493Z,22.19
2022-12-03T19:17:27.047Z,22.20
2022-12-03T19:19:53.977Z,22.13
2022-12-03T19:22:20.868Z,22.15
2022-12-03T19:24:47.549Z,22.16
2022-12-03T19:27:14.233Z,22.16
2022-12-03T19:29:40.829Z,22.17
2022-12-03T19:32:07.460Z,22.16
2022-12-03T19:34:34.067Z,22.17
2022-12-03T19:37:00.669Z,22.22
2022-12-03T19:39:27.328Z,22.21
2022-12-03T19:41:53.912Z,22.14
2022-12-03T19:44:20.512Z,22.30
2022-12-03T19:46:51.177Z,22.15
2022-12-03T19:49:20.859Z,22.23
2022-12-03T19:51:47.543Z,22.22
2022-12-03T19:54:14.126Z,22.21
2022-12-03T19:56:40.723Z,22.20
2022-12-03T19:59:07.971Z,22.17
2022-12-03T20:01:35.348Z,21.95
2022-12-03T20:04:02.700Z,21.88
2022-12-03T20:06:31.592Z,21.72
2022-12-03T20:08:59.206Z,21.60
2022-12-03T20:11:27.865Z,21.56
2022-12-03T20:13:56.013Z,21.52
2022-12-03T20:16:22.782Z,21.46
2022-12-03T20:18:49.521Z,21.39
2022-12-03T20:21:17.614Z,21.34
2022-12-03T20:23:44.245Z,21.45
2022-12-03T20:26:12.890Z,21.34
2022-12-03T20:28:39.676Z,21.23
2022-12-03T20:31:10.720Z,21.18
2022-12-03T20:33:42.436Z,21.13
2022-12-03T20:36:09.937Z,21.11
2022-12-03T20:38:37.239Z,21.10
2022-12-03T20:41:08.740Z,21.17
2022-12-03T20:43:35.384Z,21.16
2022-12-03T20:46:15.380Z,21.12
2022-12-03T20:48:42.476Z,21.08
2022-12-03T20:51:10.673Z,21.08
2022-12-03T20:53:37.365Z,21.07
2022-12-03T20:56:04.523Z,21.01
2022-12-03T20:58:31.298Z,20.96
2022-12-03T21:01:16.169Z,21.03
2022-12-03T21:03:43.624Z,20.93
2022-12-03T21:06:10.360Z,20.96
2022-12-03T21:08:41.625Z,20.89
2022-12-03T21:11:19.656Z,20.97
2022-12-03T21:13:46.482Z,20.97
2022-12-03T21:16:17.575Z,20.96
2022-12-03T21:18:44.184Z,20.95
2022-12-03T21:21:11.050Z,21.08
2022-12-03T21:23:37.636Z,21.03
2022-12-03T21:26:04.796Z,21.01
2022-12-03T21:28:31.508Z,20.99
2022-12-03T21:31:06.166Z,21.09
2022-12-03T21:33:32.900Z,21.08
2022-12-03T21:35:59.729Z,21.14
2022-12-03T21:38:26.433Z,21.02
2022-12-03T21:40:53.186Z,21.00
2022-12-03T21:43:19.744Z,20.99
2022-12-03T21:45:46.383Z,21.08
2022-12-03T21:48:13.590Z,21.02
2022-12-03T21:50:40.188Z,20.94
2022-12-03T21:53:06.863Z,20.99
2022-12-03T21:55:33.499Z,21.07
2022-12-03T21:58:00.116Z,21.03
2022-12-03T22:00:26.747Z,21.04
2022-12-03T22:02:53.372Z,21.01
2022-12-03T22:05:20.015Z,21.02
2022-12-03T22:07:46.645Z,21.00
2022-12-03T22:10:13.274Z,21.01
2022-12-03T22:12:41.835Z,20.99
2022-12-03T22:15:13.533Z,20.98
2022-12-03T22:17:45.347Z,20.96
2022-12-03T22:20:12.331Z,20.96
2022-12-03T22:22:38.953Z,20.94
2022-12-03T22:25:05.625Z,20.96
2022-12-03T22:27:32.204Z,21.00
2022-12-03T22:29:58.781Z,20.92
2022-12-03T22:32:25.785Z,20.92
2022-12-03T22:34:52.384Z,20.88
2022-12-03T22:37:18.932Z,20.87
2022-12-03T22:39:45.481Z,20.96
2022-12-03T22:42:12.087Z,20.94
2022-12-03T22:44:38.643Z,20.89
2022-12-03T22:47:05.311Z,20.90
2022-12-03T22:49:31.956Z,20.93
2022-12-03T22:51:58.526Z,20.92
2022-12-03T22:54:25.098Z,20.93
2022-12-03T22:56:51.750Z,20.93
2022-12-03T22:59:18.510Z,20.93
2022-12-03T23:01:45.565Z,20.96
2022-12-03T23:04:12.259Z,20.96
2022-12-03T23:06:38.944Z,20.92
2022-12-03T23:09:06.004Z,20.90
2022-12-03T23:11:32.691Z,20.90
2022-12-03T23:13:59.649Z,20.86
2022-12-03T23:16:28.199Z,20.89
2022-12-03T23:18:54.849Z,20.83
2022-12-03T23:21:28.986Z,20.81
2022-12-03T23:23:57.305Z,20.86
2022-12-03T23:26:23.933Z,20.90
2022-12-03T23:28:50.546Z,20.84
2022-12-03T23:31:24.635Z,20.82
2022-12-03T23:33:51.392Z,20.84
2022-12-03T23:36:18.001Z,20.91
2022-12-03T23:38:44.638Z,20.84
2022-12-03T23:41:15.580Z,20.90
2022-12-03T23:43:42.194Z,20.90
2022-12-03T23:46:10.778Z,20.94
2022-12-03T23:48:37.373Z,20.89
2022-12-03T23:51:12.275Z,20.91
2022-12-03T23:53:38.933Z,20.89
2022-12-03T23:56:09.576Z,20.92
2022-12-03T23:58:36.129Z,20.90
